Flight Track Log - Related Links

Times and Time Zones

All times are in EDT time to prevent confusion due to time zone crossing. See the N327PA flight status page for this flight to view local times or setup timezone preferences in your user account.

Time Position Orientation Groundspeed Altitude Reporting Facility
EDT Latitude Longitude Course Direction KTS MPH feet Rate Location/Type
Wed 10:46:06 PM 32.1419 -110.9572 336° Northwest 66 76 3,600  Level Albuquerque Center
Wed 10:47:07 PM 32.1592 -110.9575 359° North 67 77 4,100 492 Climbing Albuquerque Center
Wed 10:48:08 PM 32.1725 -110.9714 319° Northwest 69 79 4,600 494 Climbing Albuquerque Center
Wed 10:48:32 PM 32.1814 -110.9756 338° Northwest 75 86 4,800 500 Climbing Albuquerque Center
Wed 10:49:08 PM 32.1886 -110.9872 306° West 70 81 5,100 484 Climbing Albuquerque Center
Wed 10:49:34 PM 32.1969 -110.9894 347° North 68 78 5,300 393 Climbing Albuquerque Center
Wed 10:50:09 PM 32.2042 -111.0008 307° West 71 82 5,500 393 Climbing Albuquerque Center
Wed 10:50:35 PM 32.2122 -111.0028 348° North 68 78 5,700 500 Climbing Albuquerque Center
Wed 10:51:09 PM 32.2194 -111.0142 307° West 71 82 6,000 393 Climbing Albuquerque Center
Wed 10:51:36 PM 32.2278 -111.0178 340° North 70 81 6,100 492 Climbing Albuquerque Center
Wed 10:52:10 PM 32.2375 -111.0294 315° West 74 85 6,500 387 Climbing Albuquerque Center
Wed 10:52:38 PM 32.2447 -111.0322 342° North 73 84 6,500 135 Level Albuquerque Center
Wed 10:53:39 PM 32.2639 -111.0492 323° Northwest 78 90 6,700 121 Climbing Albuquerque Center
Wed 10:54:17 PM 32.2794 -111.0686 313° West 107 123 6,700 -98 Level Albuquerque Center
Wed 10:54:40 PM 32.2875 -111.0711 345° North 93 107 6,600 -71 Descending Albuquerque Center
Wed 10:55:41 PM 32.3164 -111.0997 320° Northwest 106 122 6,600  Level Albuquerque Center
Wed 10:56:43 PM 32.3406 -111.1219 322° Northwest 109 125 6,600  Level Albuquerque Center
Wed 10:57:44 PM 32.3647 -111.1450 321° Northwest 110 127 6,600  Level Albuquerque Center
Wed 10:58:45 PM 32.3900 -111.1647 327° Northwest 110 127 6,600  Level Albuquerque Center
Wed 10:59:47 PM 32.4156 -111.1853 326° Northwest 110 127 6,600 -49 Level Albuquerque Center
Wed 11:00:48 PM 32.4403 -111.2064 324° Northwest 110 127 6,500  Descending Albuquerque Center
Wed 11:01:49 PM 32.4636 -111.2306 319° Northwest 110 127 6,600 49 Climbing Albuquerque Center
Wed 11:02:51 PM 32.4892 -111.2506 327° Northwest 110 127 6,600 49 Level Albuquerque Center
Wed 11:03:52 PM 32.5158 -111.2689 330° Northwest 111 128 6,700  Climbing Albuquerque Center
Wed 11:04:53 PM 32.5506 -111.2883 335° Northwest 113 130 6,600 -49 Descending Albuquerque Center
Wed 11:05:55 PM 32.5758 -111.3081 327° Northwest 112 129 6,600  Level Albuquerque Center
Wed 11:06:57 PM 32.5942 -111.3372 307° West 108 124 6,600  Level Albuquerque Center
Wed 11:07:57 PM 32.6158 -111.3639 314° West 109 125 6,600 -49 Level Albuquerque Center
Wed 11:08:59 PM 32.6406 -111.3881 321° Northwest 113 130 6,500 -49 Descending Albuquerque Center
Wed 11:10:00 PM 32.6678 -111.4092 327° Northwest 117 135 6,500 -49 Level Albuquerque Center
Wed 11:11:02 PM 32.6917 -111.4311 322° Northwest 111 128 6,400  Descending Albuquerque Center
Wed 11:12:03 PM 32.7139 -111.4553 318° Northwest 108 124 6,500 49 Climbing Albuquerque Center
Wed 11:13:04 PM 32.7378 -111.4811 318° Northwest 114 131 6,500  Level Albuquerque Center
Wed 11:14:06 PM 32.7683 -111.5089 323° Northwest 117 135 6,500 49 Level Albuquerque Center
Wed 11:15:07 PM 32.7961 -111.5286 329° Northwest 116 133 6,600  Climbing Albuquerque Center
Wed 11:16:09 PM 32.8197 -111.5547 317° Northwest 115 132 6,500 -49 Descending Albuquerque Center
Wed 11:17:10 PM 32.8472 -111.5756 328° Northwest 118 136 6,500  Level Albuquerque Center
Wed 11:18:12 PM 32.8733 -111.5958 327° Northwest 112 129 6,500  Level Albuquerque Center
Wed 11:19:13 PM 32.8997 -111.6167 326° Northwest 113 130 6,500 -98 Level Albuquerque Center
Wed 11:20:15 PM 32.9272 -111.6381 327° Northwest 118 136 6,300 -195 Descending Albuquerque Center
Wed 11:21:16 PM 32.9528 -111.6622 322° Northwest 117 135 6,100 -148 Descending Albuquerque Center
Wed 11:22:17 PM 32.9833 -111.6875 325° Northwest 111 128 6,000  Descending Albuquerque Center
Wed 11:23:19 PM 33.0042 -111.7147 312° West 111 128 6,100 49 Climbing Albuquerque Center
Wed 11:24:20 PM 33.0286 -111.7353 325° Northwest 109 125 6,100  Level Albuquerque Center
Wed 11:25:22 PM 33.0533 -111.7586 322° Northwest 111 128 6,100  Level Albuquerque Center
Wed 11:26:23 PM 33.0731 -111.7825 315° West 103 119 6,100 49 Level Albuquerque Center
Wed 11:27:25 PM 33.0958 -111.8058 319° Northwest 108 124 6,200 49 Climbing Albuquerque Center
Wed 11:28:26 PM 33.1197 -111.8272 323° Northwest 109 125 6,200  Level Albuquerque Center
Wed 11:29:28 PM 33.1436 -111.8486 323° Northwest 107 123 6,200 -49 Level Albuquerque Center
Wed 11:30:29 PM 33.1742 -111.8742 325° Northwest 113 130 6,100 -49 Descending Albuquerque Center
Wed 11:31:31 PM 33.2006 -111.8947 327° Northwest 114 131 6,100  Level Albuquerque Center
Wed 11:32:32 PM 33.2250 -111.9167 323° Northwest 112 129 6,100 -537 Level Albuquerque Center
Wed 11:33:34 PM 33.2472 -111.9381 321° Northwest 104 120 5,000  Descending Albuquerque Center
Wed 11:34:35 PM 33.2758 -111.9614 326° Northwest 111 128 6,100 537 Climbing Albuquerque Center
Wed 11:35:37 PM 33.3017 -111.9728 340° North 111 128 6,100  Level Albuquerque Center
Wed 11:36:38 PM 33.3328 -111.9758 355° North 112 129 6,100 49 Level Albuquerque Center
Wed 11:37:40 PM 33.3633 -111.9833 348° North 112 129 6,200 49 Climbing Albuquerque Center
Wed 11:38:41 PM 33.3944 -111.9881 353° North 113 130 6,200 -49 Level Albuquerque Center
Wed 11:39:43 PM 33.4325 -111.9872 North 113 130 6,100 -293 Descending Albuquerque Center
Wed 11:40:44 PM 33.4653 -111.9881 359° North 118 136 5,600 -443 Descending Albuquerque Center
Wed 11:41:45 PM 33.4994 -111.9936 352° North 124 143 5,200 -244 Descending Albuquerque Center
Wed 11:42:47 PM 33.5306 -111.9925 North 119 137 5,100 -341 Descending Albuquerque Center
Wed 11:43:48 PM 33.5611 -112.0044 342° North 119 137 4,500 -293 Descending Albuquerque Center
Wed 11:44:50 PM 33.5872 -112.0231 329° Northwest 115 132 4,500  Level Albuquerque Center

Login

Don't have an account? Register now (free) for customized features, flight alerts, and more!